MMUN

Cancún International Airport

Cancún, Mexico
TAF MMUN 181050Z 1812/1918 32004KT P6SM SCT015 TX24/1819Z TN18/1812Z FM181800 06010KT P6SM BKN015 BKN080 PROB40 1820/1824 6SM -RA FM190600 06004KT P6SM SCT015 SCT080 TEMPO 1905/1909 BKN015 FM191700 12012KT P6SM BKN015 BKN250
Issued Valid From Valid To
Jan-18 @ 10:50 UTC
(2 hours ago)
Jan-18 @ 12:00 UTC
(30 minutes ago)
Jan-19 @ 18:00 UTC
(-1 days ago)
Jan-18 @ 12:00 to Jan-18 @ 18:00
TAF MMUN 181050Z 1812/1918 32004KT P6SM SCT015 TX24/1819Z TN18/1812Z
Wind Visibility Clouds
320° at 4 knots Greater than 6 miles
  • Scattered at 1,500' AGL
From Jan-18 @ 18:00 to Jan-19 @ 06:00
FM181800 06010KT P6SM BKN015 BKN080
Wind Visibility Clouds
60° at 10 knots Greater than 6 miles
  • Broken at 1,500' AGL
  • Broken at 8,000' AGL
Probable  (Probability 40%) Jan-18 @ 20:00 to Jan-19 @ 00:00
PROB40 1820/1824 6SM -RA
Visibility Conditions
6 miles
  • Light Rain
Temporary Jan-19 @ 05:00 to Jan-19 @ 09:00
TEMPO 1905/1909 BKN015
Clouds
  • Broken at 1,500' AGL
From Jan-19 @ 06:00 to Jan-19 @ 17:00
FM190600 06004KT P6SM SCT015 SCT080
Wind Visibility Clouds
60° at 4 knots Greater than 6 miles
  • Scattered at 1,500' AGL
  • Scattered at 8,000' AGL
From Jan-19 @ 17:00 to Jan-19 @ 18:00
FM191700 12012KT P6SM BKN015 BKN250
Wind Visibility Clouds
120° at 12 knots Greater than 6 miles
  • Broken at 1,500' AGL
  • Broken at 25,000' AGL
TAF MMUN 181050Z 1812/1918 32004KT P6SM SCT015 TX24/1819Z TN18/1812Z FM181800 06010KT P6SM BKN015 BKN080 PROB40 1820/1824 6SM -RA FM190600 06004KT P6SM SCT015 SCT080 TEMPO 1905/1909 BKN015 FM191700 12012KT P6SM BKN015 BKN250
Issued Jan-18 @ 10:50 UTC
(2 hours ago)
Valid From Jan-18 @ 12:00 UTC
(30 minutes ago)
Valid To Jan-19 @ 18:00 UTC
(-1 days ago)
Jan-18 @ 12:00 - Jan-18 @ 18:00
Wind Visibility
320° at 4 knots Greater than 6 miles
Clouds
  • Scattered at 1,500' AGL
From Jan-18 @ 18:00 - Jan-19 @ 06:00
Wind Visibility
60° at 10 knots Greater than 6 miles
Clouds
  • Broken at 1,500' AGL
  • Broken at 8,000' AGL
Probability 40% Probable Jan-18 @ 20:00 - Jan-19 @ 00:00
Conditions
  • Light Rain
Temporary Jan-19 @ 05:00 - Jan-19 @ 09:00
Clouds
  • Broken at 1,500' AGL
From Jan-19 @ 06:00 - Jan-19 @ 17:00
Wind Visibility
60° at 4 knots Greater than 6 miles
Clouds
  • Scattered at 1,500' AGL
  • Scattered at 8,000' AGL
From Jan-19 @ 17:00 - Jan-19 @ 18:00
Wind Visibility
120° at 12 knots Greater than 6 miles
Clouds
  • Broken at 1,500' AGL
  • Broken at 25,000' AGL